Time;durP1;ratioP1;P1;durP2;ratioP2;P2;SDS_P1;SDS_P2;PMS_P1;PMS_P2;Temp;Humidity;BMP_temperature;BMP_pressure;BME280_temperature;BME280_humidity;BME280_pressure;Samples;Min_cycle;Max_cycle;Signal;HPM_P1;HPM_P2
2022/12/06 00:00:38;;;;;;;40.60;25.00;;;;;;;8.12;100.00;102412.34;2064469;28;20562;-64
2022/12/06 00:01:42;;;;;;;42.90;25.27;;;;;;;8.16;100.00;102430.53;2064551;28;20350;-64
2022/12/06 00:02:43;;;;;;;45.10;24.97;;;;;;;8.14;100.00;102432.91;2063650;28;20196;-64
2022/12/06 00:03:46;;;;;;;43.10;24.83;;;;;;;8.11;100.00;102435.59;2064676;28;20999;-64
2022/12/06 00:04:46;;;;;;;52.60;25.47;;;;;;;8.02;100.00;102432.31;2064491;28;20278;-64
2022/12/06 00:05:46;;;;;;;43.10;24.30;;;;;;;8.05;100.00;102437.88;2064752;28;20478;-64
2022/12/06 00:06:52;;;;;;;40.87;24.90;;;;;;;7.94;100.00;102420.34;2064608;28;20197;-64
2022/12/06 00:07:53;;;;;;;39.03;24.40;;;;;;;8.10;100.00;102443.09;2064212;28;20693;-64
2022/12/06 00:08:55;;;;;;;42.20;24.43;;;;;;;8.09;100.00;102443.47;2064844;28;20447;-64
2022/12/06 00:09:55;;;;;;;39.53;25.67;;;;;;;8.09;100.00;102444.25;2064538;28;20471;-64
2022/12/06 00:11:06;;;;;;;47.20;25.30;;;;;;;8.04;100.00;102441.81;2064066;28;20452;-64
2022/12/06 00:12:06;;;;;;;43.03;24.90;;;;;;;8.02;100.00;102441.41;2064651;28;20196;-64
2022/12/06 00:13:07;;;;;;;39.53;25.13;;;;;;;8.03;100.00;102437.47;2064272;28;20448;-64
2022/12/06 00:14:07;;;;;;;38.40;25.03;;;;;;;8.03;100.00;102440.22;2064249;28;20244;-64
2022/12/06 00:15:08;;;;;;;42.80;24.20;;;;;;;8.05;100.00;102435.13;2064476;28;20256;-64
2022/12/06 00:16:11;;;;;;;35.37;24.53;;;;;;;8.09;100.00;102440.72;2064284;28;20276;-64
2022/12/06 00:17:12;;;;;;;36.10;23.30;;;;;;;8.09;100.00;102432.44;2064675;28;20552;-64
2022/12/06 00:18:12;;;;;;;42.10;24.00;;;;;;;7.30;100.00;102312.13;2064056;28;20446;-64
2022/12/06 00:19:18;;;;;;;37.07;24.50;;;;;;;8.05;100.00;102459.97;2064936;28;20193;-64
2022/12/06 00:20:18;;;;;;;42.30;25.47;;;;;;;7.96;100.00;102429.09;2064943;28;20211;-64
2022/12/06 00:21:21;;;;;;;37.53;24.70;;;;;;;7.97;100.00;102438.94;2064258;28;20455;-64
2022/12/06 00:22:22;;;;;;;39.20;24.83;;;;;;;7.84;100.00;102407.19;2064600;28;20186;-64
2022/12/06 00:23:22;;;;;;;36.70;24.50;;;;;;;7.97;100.00;102432.63;2063912;28;20500;-64
2022/12/06 00:24:23;;;;;;;36.80;24.20;;;;;;;7.87;100.00;102417.50;2064418;28;20561;-64
2022/12/06 00:25:23;;;;;;;34.90;23.40;;;;;;;7.99;100.00;102430.31;2063978;28;20309;-64
2022/12/06 00:26:24;;;;;;;35.37;23.77;;;;;;;8.02;100.00;102435.88;2064372;28;20204;-64
2022/12/06 00:27:25;;;;;;;34.03;22.53;;;;;;;7.62;100.00;102363.88;2064517;28;20276;-64
2022/12/06 00:28:25;;;;;;;33.90;23.77;;;;;;;8.08;100.00;102433.56;2064465;28;20189;-64
2022/12/06 00:29:25;;;;;;;34.97;23.43;;;;;;;8.11;100.00;102425.34;2063931;28;20643;-64
2022/12/06 00:30:26;;;;;;;33.97;23.80;;;;;;;8.10;100.00;102425.75;2063954;28;20325;-64
2022/12/06 00:31:28;;;;;;;34.10;23.63;;;;;;;8.09;100.00;102426.91;2064538;28;20201;-64
2022/12/06 00:32:29;;;;;;;32.70;22.80;;;;;;;8.08;100.00;102430.81;2064346;28;20204;-64
2022/12/06 00:33:29;;;;;;;37.90;24.30;;;;;;;8.04;100.00;102419.72;2064286;28;20476;-64
2022/12/06 00:34:30;;;;;;;31.97;23.43;;;;;;;7.97;100.00;102418.81;2064183;28;20197;-64
2022/12/06 00:35:30;;;;;;;34.20;24.10;;;;;;;7.93;100.00;102415.19;2063959;28;20648;-64
2022/12/06 00:36:34;;;;;;;35.03;23.80;;;;;;;7.89;100.00;102411.63;2064734;28;20189;-64
2022/12/06 00:37:34;;;;;;;35.27;24.60;;;;;;;7.85;100.00;102405.22;2064071;28;20207;-64
2022/12/06 00:38:35;;;;;;;36.50;24.50;;;;;;;7.85;100.00;102410.75;2064142;28;20459;-64
2022/12/06 00:39:35;;;;;;;36.10;24.00;;;;;;;7.81;100.00;102407.94;2064302;28;20724;-64
2022/12/06 00:40:36;;;;;;;33.90;24.13;;;;;;;7.87;100.00;102411.16;2063557;28;20200;-64
2022/12/06 00:41:36;;;;;;;35.70;24.00;;;;;;;7.35;100.00;102329.16;2064225;28;20241;-64
2022/12/06 00:42:37;;;;;;;34.97;24.73;;;;;;;7.92;100.00;102410.84;2064185;28;20232;-64
2022/12/06 00:43:38;;;;;;;37.53;24.27;;;;;;;7.98;100.00;102425.94;2064150;28;20258;-64
2022/12/06 00:44:39;;;;;;;37.13;25.10;;;;;;;7.96;100.00;102417.22;2064361;28;20188;-64
2022/12/06 00:45:39;;;;;;;35.93;24.00;;;;;;;7.61;100.00;102361.47;2064263;28;20425;-64
2022/12/06 00:46:40;;;;;;;36.80;24.23;;;;;;;7.96;100.00;102417.22;2064359;28;20202;-64
2022/12/06 00:47:40;;;;;;;38.10;24.80;;;;;;;7.98;100.00;102421.22;2064156;28;20190;-64
2022/12/06 00:48:41;;;;;;;33.93;23.57;;;;;;;7.64;100.00;102358.78;2064224;28;20591;-64
2022/12/06 00:49:41;;;;;;;38.20;25.17;;;;;;;7.75;100.00;102375.50;2064394;28;20232;-64
2022/12/06 00:50:42;;;;;;;37.10;24.00;;;;;;;7.97;100.00;102408.59;2063911;28;20196;-64
2022/12/06 00:51:42;;;;;;;39.63;25.20;;;;;;;7.98;100.00;102410.19;2064195;28;20181;-64
2022/12/06 00:52:42;;;;;;;34.57;23.73;;;;;;;8.00;100.00;102415.34;2064527;28;20189;-64
2022/12/06 00:53:44;;;;;;;34.17;23.63;;;;;;;8.05;100.00;102410.25;2064593;28;20624;-64
2022/12/06 00:54:44;;;;;;;33.70;23.13;;;;;;;8.04;100.00;102407.91;2063835;28;20204;-64
2022/12/06 00:55:45;;;;;;;38.43;24.87;;;;;;;7.97;100.00;102397.53;2063449;28;21011;-64
2022/12/06 00:56:46;;;;;;;35.07;23.67;;;;;;;8.04;100.00;102407.91;2064107;28;20189;-64
2022/12/06 00:57:46;;;;;;;31.67;22.93;;;;;;;8.03;100.00;102407.09;2063679;28;20495;-64
2022/12/06 00:58:47;;;;;;;34.70;23.87;;;;;;;8.00;100.00;102410.59;2063904;28;20199;-64
2022/12/06 00:59:47;;;;;;;36.97;25.53;;;;;;;7.94;100.00;102403.03;2064243;28;20221;-64
2022/12/06 01:00:48;;;;;;;34.47;23.60;;;;;;;7.87;100.00;102400.94;2062463;28;20296;-64
2022/12/06 01:01:48;;;;;;;37.17;24.77;;;;;;;7.82;100.00;102404.00;2064227;28;20296;-64
2022/12/06 01:02:49;;;;;;;37.97;23.40;;;;;;;7.87;100.00;102408.41;2064086;28;20194;-64
2022/12/06 01:03:52;;;;;;;36.40;24.73;;;;;;;7.85;100.00;102403.25;2064294;28;20369;-64
2022/12/06 01:04:52;;;;;;;36.53;24.67;;;;;;;7.88;100.00;102393.44;2062820;28;20578;-64
2022/12/06 01:05:52;;;;;;;36.40;24.47;;;;;;;7.95;100.00;102402.63;2063340;28;20456;-64
2022/12/06 01:06:53;;;;;;;34.83;23.13;;;;;;;6.94;100.00;102243.78;2063819;28;20202;-64
2022/12/06 01:07:54;;;;;;;35.87;23.70;;;;;;;7.60;100.00;102355.19;2063859;28;20214;-64
2022/12/06 01:08:56;;;;;;;36.40;24.17;;;;;;;8.00;100.00;102401.53;2063807;28;20269;-64
2022/12/06 01:09:56;;;;;;;33.95;23.13;;;;;;;8.02;100.00;102407.47;2064444;28;20575;-64
2022/12/06 01:10:57;;;;;;;35.00;23.23;;;;;;;8.03;100.00;102400.75;2063711;28;20212;-64
2022/12/06 01:11:57;;;;;;;38.00;24.87;;;;;;;8.06;100.00;102405.56;2064152;28;20198;-64
2022/12/06 01:12:58;;;;;;;38.77;24.77;;;;;;;8.04;100.00;102396.84;2063904;28;20217;-64
2022/12/06 01:13:59;;;;;;;38.97;25.13;;;;;;;7.32;100.00;102291.28;2063858;28;20215;-64
2022/12/06 01:14:59;;;;;;;36.90;24.55;;;;;;;8.10;100.00;102400.88;2063969;28;20195;-64
2022/12/06 01:16:05;;;;;;;38.30;24.40;;;;;;;7.08;100.00;102238.50;2064277;28;20693;-64
2022/12/06 01:17:05;;;;;;;35.33;24.17;;;;;;;8.06;100.00;102403.59;2063931;28;20657;-64
2022/12/06 01:18:06;;;;;;;40.43;25.60;;;;;;;7.83;100.00;102358.69;2063778;28;20546;-64
2022/12/06 01:19:06;;;;;;;37.33;25.43;;;;;;;7.99;100.00;102386.91;2064047;28;20213;-64
2022/12/06 01:20:07;;;;;;;38.30;25.33;;;;;;;7.84;100.00;102368.53;2063295;28;20215;-64
2022/12/06 01:21:13;;;;;;;42.20;26.67;;;;;;;8.08;100.00;102404.00;2062963;28;20277;-64
2022/12/06 01:22:14;;;;;;;40.22;25.52;;;;;;;7.99;100.00;102388.91;2064184;28;20433;-64
2022/12/06 01:23:14;;;;;;;39.30;25.63;;;;;;;8.07;100.00;102407.13;2064028;28;20202;-64
2022/12/06 01:24:15;;;;;;;38.00;25.60;;;;;;;8.09;100.00;102397.31;2063928;28;20201;-64
2022/12/06 01:25:15;;;;;;;37.53;25.33;;;;;;;8.13;100.00;102398.16;2063553;28;20274;-64
2022/12/06 01:26:19;;;;;;;38.37;25.27;;;;;;;7.78;100.00;102350.72;2063281;28;20661;-64
2022/12/06 01:27:20;;;;;;;38.85;24.77;;;;;;;8.07;100.00;102393.34;2064141;28;20190;-64
2022/12/06 01:28:20;;;;;;;42.33;26.03;;;;;;;8.08;100.00;102395.72;2064061;28;20279;-64
2022/12/06 01:29:20;;;;;;;40.53;27.07;;;;;;;8.09;100.00;102396.53;2063771;28;20186;-64
2022/12/06 01:30:21;;;;;;;38.10;25.57;;;;;;;8.09;100.00;102396.53;2063893;28;20625;-64
2022/12/06 01:31:21;;;;;;;40.93;26.23;;;;;;;7.05;100.00;102226.25;2063412;28;20197;-64
2022/12/06 01:32:22;;;;;;;40.50;25.97;;;;;;;8.10;100.00;102392.59;2064128;28;20574;-64
2022/12/06 01:33:23;;;;;;;39.87;26.47;;;;;;;8.10;100.00;102387.84;2063676;28;20220;-64
2022/12/06 01:34:23;;;;;;;39.63;25.97;;;;;;;8.14;100.00;102387.91;2062989;28;20189;-64
2022/12/06 01:35:24;;;;;;;39.70;26.23;;;;;;;8.11;100.00;102377.63;2063828;28;20192;-64
2022/12/06 01:36:25;;;;;;;41.97;27.40;;;;;;;8.18;100.00;102381.28;2064306;28;20654;-64
2022/12/06 01:37:25;;;;;;;39.70;26.73;;;;;;;8.15;100.00;102376.47;2063701;28;20689;-64
2022/12/06 01:38:26;;;;;;;37.73;25.80;;;;;;;8.07;100.00;102369.28;2063382;28;20824;-64
2022/12/06 01:39:26;;;;;;;42.43;26.77;;;;;;;8.16;100.00;102371.78;2063319;28;20231;-64
2022/12/06 01:40:26;;;;;;;41.83;26.23;;;;;;;8.16;100.00;102371.78;2063283;28;20219;-64
2022/12/06 01:41:27;;;;;;;38.13;25.60;;;;;;;7.61;100.00;102285.03;2063849;28;20189;-64
2022/12/06 01:42:27;;;;;;;42.73;27.57;;;;;;;8.15;100.00;102370.19;2063198;28;20245;-64
2022/12/06 01:43:36;;;;;;;42.13;26.47;;;;;;;8.17;100.00;102370.59;2063145;28;20670;-64
2022/12/06 01:44:39;;;;;;;40.90;25.55;;;;;;;8.19;100.00;102371.81;2063371;28;20179;-64
2022/12/06 01:45:40;;;;;;;39.00;26.25;;;;;;;8.23;100.00;102378.22;2063788;28;20184;-64
2022/12/06 01:46:44;;;;;;;38.10;26.10;;;;;;;8.25;100.00;102381.38;2063199;28;20289;-64
2022/12/06 01:47:44;;;;;;;38.30;25.58;;;;;;;8.23;100.00;102371.88;2063077;28;20679;-64
2022/12/06 01:48:49;;;;;;;37.97;25.10;;;;;;;7.67;100.00;102280.78;2063535;28;20560;-64
2022/12/06 01:50:16;;;;;;;38.83;25.73;;;;;;;8.20;100.00;102370.66;2063824;28;20196;-64
2022/12/06 01:51:17;;;;;;;40.65;24.92;;;;;;;8.23;100.00;102369.13;2058496;28;20976;-64
2022/12/06 01:52:20;;;;;;;40.70;26.50;;;;;;;8.09;100.00;102349.59;2063945;28;20575;-64
2022/12/06 01:53:21;;;;;;;39.40;26.23;;;;;;;7.95;100.00;102313.50;2063153;28;20204;-64
2022/12/06 01:54:24;;;;;;;36.25;25.05;;;;;;;8.27;100.00;102356.16;2063867;28;20208;-64
2022/12/06 01:55:27;;;;;;;41.05;25.35;;;;;;;8.30;100.00;102358.19;2062861;28;20249;-64
2022/12/06 01:56:28;;;;;;;39.78;25.92;;;;;;;8.33;100.00;102357.41;2063214;28;20189;-64
2022/12/06 01:57:29;;;;;;;40.60;25.73;;;;;;;8.32;100.00;102366.88;2063568;28;20193;-64
2022/12/06 01:58:39;;;;;;;37.67;25.27;;;;;;;8.20;100.00;102348.56;2063197;28;20201;-64
2022/12/06 01:59:40;;;;;;;37.13;25.23;;;;;;;7.97;100.00;102322.19;2063458;28;20178;-64
2022/12/06 02:00:40;;;;;;;40.73;26.23;;;;;;;8.34;100.00;102365.34;2063964;28;20525;-64
2022/12/06 02:01:41;;;;;;;41.17;25.40;;;;;;;8.36;100.00;102367.72;2063671;28;20198;-64
2022/12/06 02:02:41;;;;;;;36.87;25.03;;;;;;;8.37;100.00;102361.03;2063850;28;20195;-64
2022/12/06 02:03:43;;;;;;;35.13;24.23;;;;;;;8.33;100.00;102352.69;2063745;28;20588;-65
2022/12/06 02:04:44;;;;;;;39.88;25.33;;;;;;;8.35;100.00;102363.38;2063706;28;20237;-64
2022/12/06 02:05:44;;;;;;;39.83;24.70;;;;;;;8.36;100.00;102362.97;2063726;28;20202;-64
2022/12/06 02:06:46;;;;;;;38.43;25.63;;;;;;;8.38;100.00;102355.13;2063687;28;20190;-64
2022/12/06 02:07:47;;;;;;;43.65;24.65;;;;;;;8.39;100.00;102353.97;2063155;28;20188;-64
2022/12/06 02:08:49;;;;;;;41.55;25.27;;;;;;;8.37;100.00;102363.78;2063974;28;20245;-64
2022/12/06 02:09:50;;;;;;;37.40;24.02;;;;;;;7.88;100.00;102289.34;2063733;28;20601;-64
2022/12/06 02:10:51;;;;;;;40.53;24.23;;;;;;;7.49;100.00;102229.28;2063283;28;20188;-64
2022/12/06 02:11:52;;;;;;;36.97;24.87;;;;;;;8.27;100.00;102350.63;2063359;28;20455;-64
2022/12/06 02:12:57;;;;;;;40.33;25.73;;;;;;;8.26;100.00;102346.28;2063480;28;20193;-64
2022/12/06 02:13:58;;;;;;;36.15;24.60;;;;;;;8.23;100.00;102350.59;2063704;28;20208;-64
2022/12/06 02:14:59;;;;;;;40.70;23.97;;;;;;;7.21;100.00;102187.47;2063557;28;20287;-64
2022/12/06 02:16:08;;;;;;;40.97;26.70;;;;;;;8.22;100.00;102349.00;2063642;28;20191;-64
2022/12/06 02:17:23;;;;;;;38.42;24.40;;;;;;;8.26;100.00;102351.81;2063023;28;20182;-64
2022/12/06 02:18:47;;;;;;;37.58;23.33;;;;;;;8.28;100.00;102350.28;2063358;28;20672;-64
2022/12/06 02:19:59;;;;;;;38.63;23.55;;;;;;;8.24;100.00;102349.41;2063243;28;20640;-64
2022/12/06 02:21:28;;;;;;;35.50;23.00;;;;;;;8.28;100.00;102355.00;2063153;28;20191;-64
2022/12/06 02:22:40;;;;;;;33.58;22.42;;;;;;;8.33;100.00;102358.22;2063702;28;20186;-64
2022/12/06 02:23:55;;;;;;;32.90;22.67;;;;;;;8.37;100.00;102358.25;2063191;28;20614;-64
2022/12/06 02:25:16;;;;;;;33.83;23.15;;;;;;;8.31;100.00;102352.25;2063685;28;20174;-64
2022/12/06 02:26:31;;;;;;;34.03;22.92;;;;;;;8.37;100.00;102355.50;2063670;28;20182;-64
2022/12/06 02:28:10;;;;;;;31.90;22.30;;;;;;;8.35;100.00;102349.56;2063589;28;20228;-64
2022/12/06 02:29:20;;;;;;;33.03;21.90;;;;;;;7.48;100.00;102220.19;2050013;28;20235;-64
2022/12/06 02:30:48;;;;;;;33.50;21.98;;;;;;;8.35;100.00;102346.81;2063328;28;20557;-64
2022/12/06 02:32:02;;;;;;;34.85;22.23;;;;;;;8.36;100.00;102351.16;2063874;28;20190;-64
2022/12/06 02:33:07;;;;;;;36.67;22.60;;;;;;;8.35;100.00;102355.09;2063341;28;20178;-64
2022/12/06 02:34:11;;;;;;;41.30;23.75;;;;;;;8.36;100.00;102343.66;2063697;28;20602;-64
2022/12/06 02:35:19;;;;;;;33.40;23.27;;;;;;;8.34;100.00;102343.25;2063828;28;20191;-64
2022/12/06 02:36:22;;;;;;;35.47;22.63;;;;;;;8.31;100.00;102341.22;2062666;28;20218;-64
2022/12/06 02:37:33;;;;;;;31.75;22.13;;;;;;;8.32;100.00;102337.31;2063546;28;20691;-64
2022/12/06 02:38:56;;;;;;;36.83;22.65;;;;;;;8.13;100.00;102325.56;2063048;28;20707;-64
2022/12/06 02:40:06;;;;;;;30.42;21.35;;;;;;;8.32;100.00;102333.72;2062995;28;20587;-64
2022/12/06 02:41:11;;;;;;;29.85;21.38;;;;;;;8.34;100.00;102334.94;2062776;28;20219;-64
2022/12/06 02:42:17;;;;;;;29.08;21.70;;;;;;;8.20;100.00;102309.91;2063697;28;20910;-64
2022/12/06 02:43:24;;;;;;;32.00;22.30;;;;;;;8.37;100.00;102334.22;2063368;28;20275;-64
2022/12/06 02:44:30;;;;;;;30.70;21.92;;;;;;;8.39;100.00;102333.81;2063466;28;20442;-64
2022/12/06 02:45:39;;;;;;;30.38;22.38;;;;;;;8.41;100.00;102337.78;2062458;28;20200;-64
2022/12/06 02:46:42;;;;;;;31.58;21.52;;;;;;;7.71;100.00;102217.34;2063613;28;20223;-64
2022/12/06 02:47:45;;;;;;;32.67;21.80;;;;;;;8.45;100.00;102329.56;2062975;28;20192;-64
2022/12/06 02:48:47;;;;;;;31.75;22.33;;;;;;;7.64;100.00;102209.00;2063188;28;20196;-64
2022/12/06 02:49:49;;;;;;;33.70;20.88;;;;;;;8.40;100.00;102335.44;2063393;28;20197;-64
2022/12/06 02:50:58;;;;;;;31.33;22.10;;;;;;;8.40;100.00;102327.13;2063096;28;20657;-64
2022/12/06 02:52:00;;;;;;;30.52;21.58;;;;;;;8.35;100.00;102327.47;2063421;28;20195;-64
2022/12/06 02:53:03;;;;;;;31.23;22.00;;;;;;;8.23;100.00;102311.94;2062403;28;20666;-64
2022/12/06 02:54:07;;;;;;;27.98;19.33;;;;;;;7.48;100.00;102170.53;2063239;28;20224;-64
2022/12/06 02:55:11;;;;;;;27.63;20.42;;;;;;;8.39;100.00;102320.81;2062283;28;20184;-64
2022/12/06 02:56:15;;;;;;;26.17;19.00;;;;;;;8.41;100.00;102312.16;2063094;28;20180;-64
2022/12/06 02:57:22;;;;;;;28.23;19.30;;;;;;;7.68;100.00;102204.31;2063868;28;20675;-64
2022/12/06 02:58:22;;;;;;;26.10;19.33;;;;;;;8.41;100.00;102323.19;2063321;28;20239;-64
2022/12/06 02:59:23;;;;;;;23.17;18.20;;;;;;;8.47;100.00;102321.69;2063285;28;20196;-64
2022/12/06 03:00:28;;;;;;;25.40;18.83;;;;;;;8.51;100.00;102319.75;2063092;28;20627;-64
2022/12/06 03:01:36;;;;;;;26.63;19.30;;;;;;;7.71;100.00;102195.28;2063328;28;20196;-64
2022/12/06 03:02:37;;;;;;;25.35;18.55;;;;;;;8.42;100.00;102297.16;2063497;28;20219;-64
2022/12/06 03:03:50;;;;;;;24.37;18.50;;;;;;;8.52;100.00;102313.06;2063238;28;20187;-64
2022/12/06 03:05:14;;;;;;;23.50;17.13;;;;;;;8.46;100.00;102309.06;2062919;28;20442;-64
2022/12/06 03:06:38;;;;;;;24.33;18.23;;;;;;;8.42;100.00;102308.22;2063377;28;20431;-64
2022/12/06 03:07:43;;;;;;;25.03;17.77;;;;;;;8.42;100.00;102305.44;2063580;28;20426;-64
2022/12/06 03:08:52;;;;;;;24.77;18.15;;;;;;;8.38;100.00;102305.41;2063384;28;20430;-64
2022/12/06 03:10:02;;;;;;;25.15;17.85;;;;;;;8.35;100.00;102299.84;2063255;28;20572;-64
2022/12/06 03:11:03;;;;;;;23.38;17.92;;;;;;;7.84;100.00;102222.25;2062642;28;20182;-64
2022/12/06 03:12:35;;;;;;;26.40;18.33;;;;;;;8.32;100.00;102286.78;2063519;28;20663;-64
2022/12/06 03:13:45;;;;;;;26.35;18.00;;;;;;;8.40;100.00;102297.53;2045956;29;20203;-64
2022/12/06 03:14:48;;;;;;;24.13;18.33;;;;;;;8.41;100.00;102284.53;2047520;28;20275;-65
2022/12/06 03:15:57;;;;;;;24.85;17.25;;;;;;;8.41;100.00;102285.31;2063285;28;20490;-64
2022/12/06 03:17:19;;;;;;;23.77;17.23;;;;;;;8.45;100.00;102296.41;2062710;28;20178;-64
2022/12/06 03:18:30;;;;;;;23.88;16.83;;;;;;;8.48;100.00;102295.63;2062909;28;20190;-64
2022/12/06 03:19:32;;;;;;;23.30;16.52;;;;;;;8.47;100.00;102294.88;2062633;28;20676;-64
2022/12/06 03:20:41;;;;;;;22.98;17.15;;;;;;;8.45;100.00;102305.47;2061902;28;20195;-64
2022/12/06 03:21:48;;;;;;;23.67;16.93;;;;;;;8.47;100.00;102305.91;2062611;28;20270;-64
2022/12/06 03:22:54;;;;;;;23.88;17.90;;;;;;;8.48;100.00;102298.41;2063193;28;20426;-64
2022/12/06 03:23:55;;;;;;;22.73;17.30;;;;;;;8.44;100.00;102301.13;2062246;28;20180;-64
2022/12/06 03:24:57;;;;;;;24.80;17.17;;;;;;;8.44;100.00;102305.84;2063245;28;20180;-64
2022/12/06 03:26:00;;;;;;;22.08;16.80;;;;;;;8.46;100.00;102300.75;2063413;28;20440;-64
2022/12/06 03:27:05;;;;;;;23.60;17.10;;;;;;;8.29;100.00;102280.03;2062878;28;20633;-64
2022/12/06 03:28:10;;;;;;;23.88;17.73;;;;;;;8.47;100.00;102299.59;2062947;28;20192;-64
2022/12/06 03:29:13;;;;;;;22.33;17.10;;;;;;;8.25;100.00;102267.38;2063259;28;20192;-64
2022/12/06 03:30:15;;;;;;;25.17;17.25;;;;;;;8.07;100.00;102235.94;2063346;28;20187;-64
2022/12/06 03:31:15;;;;;;;24.30;17.50;;;;;;;8.43;100.00;102290.44;2062722;28;20282;-64
2022/12/06 03:32:19;;;;;;;23.43;17.23;;;;;;;8.52;100.00;102299.25;2062902;28;21031;-64
2022/12/06 03:33:23;;;;;;;22.60;17.17;;;;;;;8.46;100.00;102292.47;2062387;28;20187;-64
2022/12/06 03:34:30;;;;;;;24.48;17.55;;;;;;;7.67;100.00;102166.84;2063020;28;20178;-64
2022/12/06 03:35:33;;;;;;;22.73;17.50;;;;;;;8.49;100.00;102295.28;2062846;28;20174;-64
2022/12/06 03:36:35;;;;;;;23.17;16.67;;;;;;;8.48;100.00;102284.59;2062398;28;20267;-64
2022/12/06 03:37:39;;;;;;;20.60;16.65;;;;;;;7.89;100.00;102194.31;2063277;28;20632;-64
2022/12/06 03:38:56;;;;;;;21.90;16.33;;;;;;;8.42;100.00;102267.56;2063097;28;20185;-64
2022/12/06 03:40:20;;;;;;;23.38;17.02;;;;;;;8.48;100.00;102279.88;2063472;28;20203;-64
2022/12/06 03:41:24;;;;;;;19.63;15.77;;;;;;;8.48;100.00;102279.06;2062727;28;20182;-64
2022/12/06 03:42:25;;;;;;;23.48;16.30;;;;;;;8.39;100.00;102275.78;2063352;28;20195;-64
2022/12/06 03:43:25;;;;;;;21.57;16.17;;;;;;;8.49;100.00;102275.94;2062813;28;20271;-64
2022/12/06 03:44:26;;;;;;;21.20;15.73;;;;;;;8.48;100.00;102279.06;2062356;28;20559;-64
2022/12/06 03:45:35;;;;;;;21.17;15.07;;;;;;;7.64;100.00;102151.06;2063116;28;20197;-64
2022/12/06 03:46:50;;;;;;;20.00;14.57;;;;;;;8.23;100.00;102255.88;2063122;28;21226;-64
2022/12/06 03:47:54;;;;;;;19.80;15.67;;;;;;;8.46;100.00;102276.66;2063094;28;20280;-64
2022/12/06 03:49:03;;;;;;;22.37;15.67;;;;;;;8.42;100.00;102266.75;2062762;28;20487;-64
2022/12/06 03:50:10;;;;;;;19.77;15.20;;;;;;;7.86;100.00;102173.00;2062987;28;20442;-64
2022/12/06 03:51:19;;;;;;;19.42;14.82;;;;;;;8.49;100.00;102286.19;2062836;28;20211;-64
2022/12/06 03:52:22;;;;;;;20.33;15.07;;;;;;;8.51;100.00;102283.84;2062233;28;20239;-64
2022/12/06 03:53:23;;;;;;;19.63;15.10;;;;;;;8.47;100.00;102285.75;2062969;28;20971;-64
2022/12/06 03:54:23;;;;;;;18.37;14.90;;;;;;;7.35;100.00;102113.22;2063062;28;20562;-64
2022/12/06 03:55:24;;;;;;;21.60;15.40;;;;;;;8.45;100.00;102280.63;2062333;28;20257;-64
2022/12/06 03:56:25;;;;;;;22.13;14.80;;;;;;;8.48;100.00;102279.06;2062859;28;20186;-64
2022/12/06 03:57:26;;;;;;;20.55;15.98;;;;;;;8.16;100.00;102225.41;2063150;28;20588;-64
2022/12/06 03:58:26;;;;;;;18.07;15.07;;;;;;;8.45;100.00;102288.91;2063139;28;20208;-64
2022/12/06 03:59:27;;;;;;;18.63;14.63;;;;;;;8.48;100.00;102284.59;2062878;28;20197;-64
2022/12/06 04:00:27;;;;;;;18.73;14.83;;;;;;;8.47;100.00;102283.00;2062460;28;20240;-64
2022/12/06 04:01:28;;;;;;;20.57;15.87;;;;;;;8.44;100.00;102279.03;2062150;28;20235;-64
2022/12/06 04:02:28;;;;;;;18.23;14.73;;;;;;;8.48;100.00;102288.16;2062352;28;20635;-64
2022/12/06 04:03:28;;;;;;;20.13;15.63;;;;;;;8.48;100.00;102276.31;2063204;28;20241;-64
2022/12/06 04:04:29;;;;;;;19.37;14.93;;;;;;;8.47;100.00;102274.72;2062653;28;20195;-64
2022/12/06 04:05:30;;;;;;;17.70;14.70;;;;;;;7.67;100.00;102148.31;2062798;28;20214;-64
2022/12/06 04:06:31;;;;;;;18.23;15.02;;;;;;;7.73;100.00;102168.91;2063405;28;20179;-64
2022/12/06 04:07:32;;;;;;;18.33;14.63;;;;;;;8.48;100.00;102279.88;2062469;28;20195;-64
2022/12/06 04:08:32;;;;;;;19.10;15.17;;;;;;;8.04;100.00;102218.16;2062701;28;20206;-64
2022/12/06 04:09:51;;;;;;;17.47;14.97;;;;;;;8.42;100.00;102275.06;2062864;28;20198;-64
2022/12/06 04:10:52;;;;;;;17.98;14.23;;;;;;;8.41;100.00;102287.28;2062517;28;20240;-64
2022/12/06 04:11:52;;;;;;;19.37;15.50;;;;;;;8.42;100.00;102284.16;2062234;28;20278;-64
2022/12/06 04:13:04;;;;;;;19.97;15.60;;;;;;;7.84;100.00;102189.13;2062717;28;20188;-64
2022/12/06 04:14:04;;;;;;;19.13;16.15;;;;;;;8.25;100.00;102253.56;2062859;28;20580;-64
2022/12/06 04:15:06;;;;;;;17.60;15.23;;;;;;;8.45;100.00;102275.09;2062944;28;20194;-64
2022/12/06 04:18:09;;;;;;;24.08;15.15;;;;;;;8.40;100.00;102277.41;2062914;28;20186;-64
2022/12/06 04:18:46;;;;;;;17.65;14.52;;;;;;;8.43;100.00;102282.16;2063024;28;20191;-64
2022/12/06 04:19:47;;;;;;;18.50;15.83;;;;;;;8.09;100.00;102247.44;2062966;28;20246;-64
2022/12/06 04:23:46;;;;;;;18.65;15.10;;;;;;;8.40;100.00;102285.69;2063481;28;20170;-64
2022/12/06 04:24:47;;;;;;;18.15;14.25;;;;;;;8.32;100.00;102271.00;2062451;28;20191;-64
2022/12/06 04:25:47;;;;;;;18.37;15.10;;;;;;;8.41;100.00;102279.78;2062683;28;20187;-64
2022/12/06 04:26:48;;;;;;;18.03;14.63;;;;;;;8.46;100.00;102267.59;2062907;28;20275;-64
2022/12/06 04:38:39;;;;;;;18.20;14.07;;;;;;;8.46;100.00;102265.63;2064147;28;20597;-64
2022/12/06 04:39:40;;;;;;;20.17;14.25;;;;;;;8.41;100.00;102270.72;2064458;28;20580;-64
2022/12/06 04:40:40;;;;;;;18.70;14.87;;;;;;;8.23;100.00;102244.84;2063482;28;20274;-64
2022/12/06 04:44:19;;;;;;;18.77;14.82;;;;;;;8.35;100.00;102267.47;2064397;28;20183;-64
2022/12/06 04:45:19;;;;;;;17.67;14.77;;;;;;;8.36;100.00;102265.53;2064214;28;20199;-64
2022/12/06 04:46:20;;;;;;;18.80;14.73;;;;;;;8.35;100.00;102256.44;2064216;28;20236;-64
2022/12/06 04:47:20;;;;;;;19.00;14.97;;;;;;;7.80;100.00;102166.22;2064130;28;20277;-64
2022/12/06 04:48:21;;;;;;;20.10;14.37;;;;;;;7.31;100.00;102090.31;2064109;28;20478;-64
2022/12/06 04:49:21;;;;;;;18.37;14.40;;;;;;;8.27;100.00;102240.97;2063365;28;20584;-64
2022/12/06 04:50:22;;;;;;;18.80;15.07;;;;;;;7.82;100.00;102171.34;2064450;28;20213;-65
2022/12/06 04:51:23;;;;;;;17.43;14.50;;;;;;;8.43;100.00;102258.09;2064668;28;20182;-64
2022/12/06 04:52:23;;;;;;;21.60;14.23;;;;;;;8.40;100.00;102258.84;2064250;28;20571;-64
2022/12/06 04:53:24;;;;;;;18.00;14.27;;;;;;;8.43;100.00;102263.63;2064378;28;20637;-64
2022/12/06 04:54:24;;;;;;;18.67;14.30;;;;;;;8.45;100.00;102257.72;2064040;28;20195;-64
2022/12/06 04:55:25;;;;;;;16.33;13.90;;;;;;;8.12;100.00;102202.47;2063376;28;20255;-64
2022/12/06 04:56:25;;;;;;;17.67;13.97;;;;;;;8.35;100.00;102241.84;2064087;28;20184;-64
2022/12/06 04:57:26;;;;;;;18.30;14.10;;;;;;;8.06;100.00;102193.75;2064156;28;20191;-64
2022/12/06 04:58:26;;;;;;;17.67;13.87;;;;;;;8.47;100.00;102252.63;2063805;28;20187;-64
2022/12/06 04:59:27;;;;;;;19.20;14.20;;;;;;;8.47;100.00;102263.66;2064539;28;20498;-65
2022/12/06 05:00:28;;;;;;;19.30;14.10;;;;;;;8.45;100.00;102257.72;2062297;28;20223;-67
2022/12/06 05:01:28;;;;;;;18.20;13.73;;;;;;;8.48;100.00;102262.47;2061733;28;20197;-60
2022/12/06 05:02:29;;;;;;;17.07;13.90;;;;;;;8.49;100.00;102255.78;2060812;28;20432;-64
2022/12/06 05:03:29;;;;;;;17.53;13.90;;;;;;;8.45;100.00;102258.50;2062218;28;20198;-62
2022/12/06 05:04:30;;;;;;;17.97;14.27;;;;;;;8.46;100.00;102259.31;2062986;28;20561;-60
2022/12/06 05:05:31;;;;;;;17.20;13.80;;;;;;;8.49;100.00;102259.34;2062709;28;20185;-64
2022/12/06 05:06:31;;;;;;;18.50;13.93;;;;;;;8.47;100.00;102263.66;2064670;28;20658;-62
2022/12/06 05:07:32;;;;;;;17.50;13.97;;;;;;;8.43;100.00;102252.59;2064206;28;20194;-61